Página principal
METAR-TAF:

METAR-TAF

Aeroportos :

Tenerife Sul, Espanha

Aeroporto de Tenerife Sul

latitude: 28-03N, longitude: 016-34W, altura: 64 m

Observação actual do tempo

O boletim foi feito há 27 minutos, às 00:00 UTC
Vento 12 kt de es-nordeste
Temperatura 24°C
Humidade 78%
Pressão 1019 hPa
Visibilidade 10 km ou mais
Nuvens dispersasa uma altura de 2400 ft

METAR: GCTS 200000Z 07012KT 9999 SCT024 24/20 Q1019 NOSIG

Hora: 01:27 (00:27 UTC)

Previsão

O boletim foi feito há 4 horas e 27 minutos, às 20:00 UTC
Previsão válida de 19 às 21 UTC a 20 às 21 UTC
Vento 5 kt de nordeste
Visibilidade 10 km ou mais
Poucas nuvensa uma altura de 2500 ft
Tornando-se
de 20 às 10 UTC a 20 às 11 UTC
Vento 16 kt de este
Probabilidade 30% :
Temporariamente
de 20 às 10 UTC a 20 às 18 UTC
Vento 15 kt de este com rajadas de 25 kt

TAF: GCTS 192000Z 1921/2021 05005KT 9999 FEW025 TX29/2014Z TN23/2005Z BECMG 2010/2011 09016KT PROB30 TEMPO 2010/2018 09015G25KT

Observações e previsões do tempo de mais de 4000 aeroportos (mensagens METAR e TAF).

As estações disponíveis são os pontos amarelos e vermelhos sobre o mapa.

Mova o rato sobre o mapa para ver o nome da estação.

Depois clique no ponto para visualizar as observações e previsões meteorológicas.

Para alterar o mapa : clique nos botões verdes com uma cruz preta para aumentar o zoom; no botão verde com uma pitada de zoom; ou nas setas verdes para mapas adjacentes.


METAR-TAF: